sensor_id;sensor_type;location;lat;lon;timestamp;pressure;altitude;pressure_sealevel;temperature;humidity
5284;BME280;15377;48.540;9.268;2022-08-03T00:00:58;97504.56;;;17.63;100.00
5284;BME280;15377;48.540;9.268;2022-08-03T00:03:23;97497.03;;;17.58;100.00
5284;BME280;15377;48.540;9.268;2022-08-03T00:05:49;97506.88;;;17.59;100.00
5284;BME280;15377;48.540;9.268;2022-08-03T00:08:14;97481.72;;;17.41;100.00
5284;BME280;15377;48.540;9.268;2022-08-03T00:10:39;97487.06;;;17.28;100.00
5284;BME280;15377;48.540;9.268;2022-08-03T00:13:05;97503.50;;;17.26;100.00
5284;BME280;15377;48.540;9.268;2022-08-03T00:15:30;97499.25;;;17.19;100.00
5284;BME280;15377;48.540;9.268;2022-08-03T00:17:55;97486.44;;;17.05;100.00
5284;BME280;15377;48.540;9.268;2022-08-03T00:20:21;97484.38;;;17.06;100.00
5284;BME280;15377;48.540;9.268;2022-08-03T00:22:46;97493.22;;;17.10;100.00
5284;BME280;15377;48.540;9.268;2022-08-03T00:25:12;97485.69;;;16.99;100.00
5284;BME280;15377;48.540;9.268;2022-08-03T00:27:37;97490.22;;;17.02;100.00
5284;BME280;15377;48.540;9.268;2022-08-03T00:30:03;97487.44;;;17.02;100.00
5284;BME280;15377;48.540;9.268;2022-08-03T00:32:28;97472.28;;;16.98;100.00
5284;BME280;15377;48.540;9.268;2022-08-03T00:34:54;97487.44;;;17.02;100.00
5284;BME280;15377;48.540;9.268;2022-08-03T00:37:19;97480.91;;;16.94;100.00
5284;BME280;15377;48.540;9.268;2022-08-03T00:39:44;97480.69;;;16.87;100.00
5284;BME280;15377;48.540;9.268;2022-08-03T00:42:11;97487.00;;;16.93;100.00
5284;BME280;15377;48.540;9.268;2022-08-03T00:44:41;97476.66;;;16.82;100.00
5284;BME280;15377;48.540;9.268;2022-08-03T00:47:07;97484.72;;;16.91;100.00
5284;BME280;15377;48.540;9.268;2022-08-03T00:49:35;97479.22;;;16.80;100.00
5284;BME280;15377;48.540;9.268;2022-08-03T00:52:01;97484.19;;;16.98;100.00
5284;BME280;15377;48.540;9.268;2022-08-03T00:54:27;97477.59;;;17.01;100.00
5284;BME280;15377;48.540;9.268;2022-08-03T00:56:52;97489.63;;;17.20;100.00
5284;BME280;15377;48.540;9.268;2022-08-03T00:59:18;97480.59;;;17.09;100.00
5284;BME280;15377;48.540;9.268;2022-08-03T01:01:43;97489.19;;;17.11;100.00
5284;BME280;15377;48.540;9.268;2022-08-03T01:04:09;97454.94;;;16.81;100.00
5284;BME280;15377;48.540;9.268;2022-08-03T01:09:54;97482.22;;;16.82;100.00
5284;BME280;15377;48.540;9.268;2022-08-03T01:15:24;97473.72;;;16.58;100.00
5284;BME280;15377;48.540;9.268;2022-08-03T01:17:55;97466.66;;;16.57;100.00
5284;BME280;15377;48.540;9.268;2022-08-03T01:20:23;97460.59;;;16.53;100.00
5284;BME280;15377;48.540;9.268;2022-08-03T01:31:09;97456.59;;;16.43;100.00
5284;BME280;15377;48.540;9.268;2022-08-03T01:33:43;97456.59;;;16.43;100.00
5284;BME280;15377;48.540;9.268;2022-08-03T01:36:13;97452.31;;;16.42;100.00
5284;BME280;15377;48.540;9.268;2022-08-03T01:39:06;97458.59;;;16.48;100.00
5284;BME280;15377;48.540;9.268;2022-08-03T01:41:38;97452.53;;;16.44;100.00
5284;BME280;15377;48.540;9.268;2022-08-03T01:44:07;97438.91;;;16.35;100.00
5284;BME280;15377;48.540;9.268;2022-08-03T01:46:33;97425.78;;;16.30;100.00
5284;BME280;15377;48.540;9.268;2022-08-03T01:49:02;97447.50;;;16.48;100.00
5284;BME280;15377;48.540;9.268;2022-08-03T01:51:28;97452.22;;;16.59;100.00
5284;BME280;15377;48.540;9.268;2022-08-03T01:53:54;97450.69;;;16.63;100.00
5284;BME280;15377;48.540;9.268;2022-08-03T01:56:23;97448.69;;;16.64;100.00
5284;BME280;15377;48.540;9.268;2022-08-03T01:58:51;97448.19;;;16.60;100.00
5284;BME280;15377;48.540;9.268;2022-08-03T02:01:19;97444.13;;;16.66;100.00
5284;BME280;15377;48.540;9.268;2022-08-03T02:03:46;97445.16;;;16.69;100.00
5284;BME280;15377;48.540;9.268;2022-08-03T02:06:14;97447.66;;;16.72;100.00
5284;BME280;15377;48.540;9.268;2022-08-03T02:08:42;97446.91;;;16.66;100.00
5284;BME280;15377;48.540;9.268;2022-08-03T02:11:08;97442.41;;;16.52;100.00
5284;BME280;15377;48.540;9.268;2022-08-03T02:13:34;97435.31;;;16.57;100.00
5284;BME280;15377;48.540;9.268;2022-08-03T02:16:02;97444.13;;;16.72;100.00
5284;BME280;15377;48.540;9.268;2022-08-03T02:18:30;97431.25;;;16.63;100.00
5284;BME280;15377;48.540;9.268;2022-08-03T02:20:58;97442.38;;;16.63;100.00
5284;BME280;15377;48.540;9.268;2022-08-03T02:23:25;97440.16;;;16.45;100.00
5284;BME280;15377;48.540;9.268;2022-08-03T02:25:55;97443.47;;;16.38;100.00
5284;BME280;15377;48.540;9.268;2022-08-03T02:28:31;97438.66;;;16.28;100.00
5284;BME280;15377;48.540;9.268;2022-08-03T02:30:57;97427.56;;;16.22;100.00
5284;BME280;15377;48.540;9.268;2022-08-03T02:33:27;97422.53;;;16.15;100.00
5284;BME280;15377;48.540;9.268;2022-08-03T02:35:56;97422.31;;;16.08;100.00
5284;BME280;15377;48.540;9.268;2022-08-03T02:38:26;97428.09;;;16.10;100.00
5284;BME280;15377;48.540;9.268;2022-08-03T02:40:54;97430.38;;;16.11;100.00
5284;BME280;15377;48.540;9.268;2022-08-03T02:43:22;97398.88;;;15.87;100.00
5284;BME280;15377;48.540;9.268;2022-08-03T02:45:50;97435.44;;;15.96;100.00
5284;BME280;15377;48.540;9.268;2022-08-03T02:48:27;97422.56;;;15.88;100.00
5284;BME280;15377;48.540;9.268;2022-08-03T02:50:56;97416.81;;;15.69;100.00
5284;BME280;15377;48.540;9.268;2022-08-03T02:53:22;97428.91;;;15.77;100.00
5284;BME280;15377;48.540;9.268;2022-08-03T02:55:49;97423.09;;;15.70;100.00
5284;BME280;15377;48.540;9.268;2022-08-03T02:58:17;97427.66;;;15.78;100.00
5284;BME280;15377;48.540;9.268;2022-08-03T03:00:45;97424.88;;;15.78;100.00
5284;BME280;15377;48.540;9.268;2022-08-03T03:03:12;97430.69;;;15.80;100.00
5284;BME280;15377;48.540;9.268;2022-08-03T03:05:40;97424.38;;;15.74;100.00
5284;BME280;15377;48.540;9.268;2022-08-03T03:08:07;97431.94;;;15.68;100.00
5284;BME280;15377;48.540;9.268;2022-08-03T03:10:34;97423.13;;;15.64;100.00
5284;BME280;15377;48.540;9.268;2022-08-03T03:13:01;97432.94;;;15.65;100.00
5284;BME280;15377;48.540;9.268;2022-08-03T03:15:27;97430.44;;;15.56;100.00
5284;BME280;15377;48.540;9.268;2022-08-03T03:17:55;97431.41;;;15.53;100.00
5284;BME280;15377;48.540;9.268;2022-08-03T03:20:23;97422.84;;;15.46;100.00
5284;BME280;15377;48.540;9.268;2022-08-03T03:22:49;97429.16;;;15.52;100.00
5284;BME280;15377;48.540;9.268;2022-08-03T03:25:16;97419.06;;;15.43;100.00
5284;BME280;15377;48.540;9.268;2022-08-03T03:27:41;97422.34;;;15.47;100.00
5284;BME280;15377;48.540;9.268;2022-08-03T03:30:08;97418.31;;;15.48;100.00
5284;BME280;15377;48.540;9.268;2022-08-03T03:32:33;97425.88;;;15.42;100.00
5284;BME280;15377;48.540;9.268;2022-08-03T03:35:01;97403.16;;;15.27;100.00
5284;BME280;15377;48.540;9.268;2022-08-03T03:37:26;97426.63;;;15.37;100.00
5284;BME280;15377;48.540;9.268;2022-08-03T03:39:53;97428.91;;;15.33;100.00
5284;BME280;15377;48.540;9.268;2022-08-03T03:42:19;97429.13;;;15.30;100.00
5284;BME280;15377;48.540;9.268;2022-08-03T03:44:44;97426.34;;;15.24;100.00
5284;BME280;15377;48.540;9.268;2022-08-03T03:47:10;97429.84;;;15.19;100.00
5284;BME280;15377;48.540;9.268;2022-08-03T03:49:35;97438.41;;;15.16;100.00
5284;BME280;15377;48.540;9.268;2022-08-03T03:52:01;97440.44;;;15.15;100.00
5284;BME280;15377;48.540;9.268;2022-08-03T03:54:38;97444.97;;;15.18;100.00
5284;BME280;15377;48.540;9.268;2022-08-03T03:57:03;97441.19;;;15.16;100.00
5284;BME280;15377;48.540;9.268;2022-08-03T03:59:29;97436.16;;;15.25;100.00
5284;BME280;15377;48.540;9.268;2022-08-03T04:01:54;97428.41;;;15.40;100.00
5284;BME280;15377;48.540;9.268;2022-08-03T04:04:19;97414.28;;;15.49;100.00
5284;BME280;15377;48.540;9.268;2022-08-03T04:07:03;97424.63;;;15.54;100.00
5284;BME280;15377;48.540;9.268;2022-08-03T04:09:47;97435.97;;;15.56;100.00
5284;BME280;15377;48.540;9.268;2022-08-03T04:12:32;97424.34;;;15.52;100.00
5284;BME280;15377;48.540;9.268;2022-08-03T04:15:01;97427.91;;;15.47;100.00
5284;BME280;15377;48.540;9.268;2022-08-03T04:17:29;97435.94;;;15.45;100.00
5284;BME280;15377;48.540;9.268;2022-08-03T04:19:56;97433.94;;;15.51;100.00
5284;BME280;15377;48.540;9.268;2022-08-03T04:22:25;97433.44;;;15.47;100.00
5284;BME280;15377;48.540;9.268;2022-08-03T04:24:56;97436.47;;;15.49;100.00
5284;BME280;15377;48.540;9.268;2022-08-03T04:27:26;97432.69;;;15.47;100.00
5284;BME280;15377;48.540;9.268;2022-08-03T04:29:53;97435.22;;;15.45;100.00
5284;BME280;15377;48.540;9.268;2022-08-03T04:32:22;97418.28;;;15.37;100.00
5284;BME280;15377;48.540;9.268;2022-08-03T04:34:51;97432.69;;;15.41;100.00
5284;BME280;15377;48.540;9.268;2022-08-03T04:37:28;97429.66;;;15.39;100.00
5284;BME280;15377;48.540;9.268;2022-08-03T04:39:57;97447.03;;;15.45;100.00
5284;BME280;15377;48.540;9.268;2022-08-03T04:42:25;97448.06;;;15.42;100.00
5284;BME280;15377;48.540;9.268;2022-08-03T04:44:52;97441.25;;;15.43;100.00
5284;BME280;15377;48.540;9.268;2022-08-03T04:47:20;97432.19;;;15.43;100.00
5284;BME280;15377;48.540;9.268;2022-08-03T04:49:46;97438.75;;;15.56;100.00
5284;BME280;15377;48.540;9.268;2022-08-03T04:52:11;97442.53;;;15.64;100.00
5284;BME280;15377;48.540;9.268;2022-08-03T04:54:42;97451.38;;;15.79;100.00
5284;BME280;15377;48.540;9.268;2022-08-03T04:57:09;97458.91;;;15.84;100.00
5284;BME280;15377;48.540;9.268;2022-08-03T04:59:35;97444.53;;;15.91;100.00
5284;BME280;15377;48.540;9.268;2022-08-03T05:02:00;97451.84;;;16.05;100.00
5284;BME280;15377;48.540;9.268;2022-08-03T05:04:26;97452.56;;;16.17;100.00
5284;BME280;15377;48.540;9.268;2022-08-03T05:06:51;97449.50;;;16.31;100.00
5284;BME280;15377;48.540;9.268;2022-08-03T05:09:16;97443.97;;;16.42;100.00
5284;BME280;15377;48.540;9.268;2022-08-03T05:11:42;97451.44;;;16.69;100.00
5284;BME280;15377;48.540;9.268;2022-08-03T05:14:07;97438.81;;;16.68;100.00
5284;BME280;15377;48.540;9.268;2022-08-03T05:16:32;97459.47;;;16.89;100.00
5284;BME280;15377;48.540;9.268;2022-08-03T05:18:58;97462.91;;;17.06;100.00
5284;BME280;15377;48.540;9.268;2022-08-03T05:21:23;97464.34;;;17.18;100.00
5284;BME280;15377;48.540;9.268;2022-08-03T05:23:49;97452.94;;;17.22;100.00
5284;BME280;15377;48.540;9.268;2022-08-03T05:26:14;97435.97;;;17.31;100.00
5284;BME280;15377;48.540;9.268;2022-08-03T05:28:39;97469.44;;;17.60;100.00
5284;BME280;15377;48.540;9.268;2022-08-03T05:31:05;97465.06;;;17.70;100.00
5284;BME280;15377;48.540;9.268;2022-08-03T05:33:30;97469.72;;;17.86;100.00
5284;BME280;15377;48.540;9.268;2022-08-03T05:35:56;97463.59;;;17.93;100.00
5284;BME280;15377;48.540;9.268;2022-08-03T05:38:21;97476.13;;;18.11;100.00
5284;BME280;15377;48.540;9.268;2022-08-03T05:40:47;97488.44;;;18.21;100.00
5284;BME280;15377;48.540;9.268;2022-08-03T05:43:12;97468.88;;;18.26;100.00
5284;BME280;15377;48.540;9.268;2022-08-03T05:45:37;97482.63;;;18.48;100.00
5284;BME280;15377;48.540;9.268;2022-08-03T05:48:04;97473.25;;;18.46;100.00
5284;BME280;15377;48.540;9.268;2022-08-03T05:50:29;97483.13;;;18.71;100.00
5284;BME280;15377;48.540;9.268;2022-08-03T05:52:55;97483.75;;;18.82;100.00
5284;BME280;15377;48.540;9.268;2022-08-03T05:55:22;97471.25;;;18.88;100.00
5284;BME280;15377;48.540;9.268;2022-08-03T05:57:47;97492.16;;;19.00;100.00
5284;BME280;15377;48.540;9.268;2022-08-03T06:00:13;97487.47;;;19.08;100.00
5284;BME280;15377;48.540;9.268;2022-08-03T06:02:38;97496.97;;;19.24;100.00
5284;BME280;15377;48.540;9.268;2022-08-03T06:05:05;97498.09;;;19.34;100.00
5284;BME280;15377;48.540;9.268;2022-08-03T06:07:31;97501.19;;;19.49;100.00
5284;BME280;15377;48.540;9.268;2022-08-03T06:09:56;97501.00;;;19.60;100.00
5284;BME280;15377;48.540;9.268;2022-08-03T06:12:22;97505.47;;;19.68;100.00
5284;BME280;15377;48.540;9.268;2022-08-03T06:14:47;97510.75;;;19.72;100.00
5284;BME280;15377;48.540;9.268;2022-08-03T06:17:12;97517.13;;;19.85;100.00
5284;BME280;15377;48.540;9.268;2022-08-03T06:19:39;97516.22;;;19.96;100.00
5284;BME280;15377;48.540;9.268;2022-08-03T06:22:04;97488.91;;;19.89;100.00
5284;BME280;15377;48.540;9.268;2022-08-03T06:24:30;97499.75;;;20.11;100.00
5284;BME280;15377;48.540;9.268;2022-08-03T06:26:55;97497.59;;;20.17;100.00
5284;BME280;15377;48.540;9.268;2022-08-03T06:29:20;97516.22;;;20.27;100.00
5284;BME280;15377;48.540;9.268;2022-08-03T06:31:46;97513.00;;;20.36;100.00
5284;BME280;15377;48.540;9.268;2022-08-03T06:34:11;97519.41;;;20.50;100.00
5284;BME280;15377;48.540;9.268;2022-08-03T06:36:37;97501.66;;;20.47;100.00
5284;BME280;15377;48.540;9.268;2022-08-03T06:39:02;97513.28;;;20.64;100.00
5284;BME280;15377;48.540;9.268;2022-08-03T06:41:28;97526.31;;;20.75;100.00
5284;BME280;15377;48.540;9.268;2022-08-03T06:43:54;97524.09;;;20.86;100.00
5284;BME280;15377;48.540;9.268;2022-08-03T06:46:20;97517.09;;;21.06;100.00
5284;BME280;15377;48.540;9.268;2022-08-03T06:48:45;97515.56;;;21.18;100.00
5284;BME280;15377;48.540;9.268;2022-08-03T06:51:11;97535.34;;;21.33;100.00
5284;BME280;15377;48.540;9.268;2022-08-03T06:53:37;97526.72;;;21.44;100.00
5284;BME280;15377;48.540;9.268;2022-08-03T06:56:06;97533.25;;;21.59;100.00
5284;BME280;15377;48.540;9.268;2022-08-03T06:58:32;97528.50;;;21.67;100.00
5284;BME280;15377;48.540;9.268;2022-08-03T07:00:57;97535.44;;;21.87;100.00
5284;BME280;15377;48.540;9.268;2022-08-03T07:03:22;97535.41;;;22.00;100.00
5284;BME280;15377;48.540;9.268;2022-08-03T07:05:48;97547.22;;;22.06;100.00
5284;BME280;15377;48.540;9.268;2022-08-03T07:08:15;97535.69;;;22.09;100.00
5284;BME280;15377;48.540;9.268;2022-08-03T07:10:40;97543.50;;;22.24;100.00
5284;BME280;15377;48.540;9.268;2022-08-03T07:13:06;97544.06;;;22.43;100.00
5284;BME280;15377;48.540;9.268;2022-08-03T07:15:31;97523.41;;;22.53;100.00
5284;BME280;15377;48.540;9.268;2022-08-03T07:17:57;97537.19;;;22.72;100.00
5284;BME280;15377;48.540;9.268;2022-08-03T07:20:23;97541.97;;;22.84;100.00
5284;BME280;15377;48.540;9.268;2022-08-03T07:22:48;97533.03;;;22.93;100.00
5284;BME280;15377;48.540;9.268;2022-08-03T07:25:14;97541.00;;;23.09;100.00
5284;BME280;15377;48.540;9.268;2022-08-03T07:27:43;97529.44;;;23.13;100.00
5284;BME280;15377;48.540;9.268;2022-08-03T07:30:09;97538.91;;;23.30;100.00
5284;BME280;15377;48.540;9.268;2022-08-03T07:32:35;97547.03;;;23.49;100.00
5284;BME280;15377;48.540;9.268;2022-08-03T07:35:01;97544.06;;;23.54;100.00
5284;BME280;15377;48.540;9.268;2022-08-03T07:37:27;97541.50;;;23.71;100.00
5284;BME280;15377;48.540;9.268;2022-08-03T07:39:53;97540.63;;;23.84;100.00
5284;BME280;15377;48.540;9.268;2022-08-03T07:42:21;97529.78;;;23.95;100.00
5284;BME280;15377;48.540;9.268;2022-08-03T07:44:48;97528.31;;;24.02;100.00
5284;BME280;15377;48.540;9.268;2022-08-03T07:47:18;97531.13;;;24.09;100.00
5284;BME280;15377;48.540;9.268;2022-08-03T07:49:43;97538.69;;;24.29;100.00
5284;BME280;15377;48.540;9.268;2022-08-03T07:52:09;97536.25;;;24.41;100.00
5284;BME280;15377;48.540;9.268;2022-08-03T07:54:52;97543.38;;;24.49;100.00
5284;BME280;15377;48.540;9.268;2022-08-03T07:57:18;97521.25;;;24.53;100.00
5284;BME280;15377;48.540;9.268;2022-08-03T07:59:45;97534.59;;;24.60;100.00
5284;BME280;15377;48.540;9.268;2022-08-03T08:02:10;97528.75;;;24.58;100.00
5284;BME280;15377;48.540;9.268;2022-08-03T08:04:35;97539.63;;;24.77;100.00
5284;BME280;15377;48.540;9.268;2022-08-03T08:07:01;97522.97;;;24.79;100.00
5284;BME280;15377;48.540;9.268;2022-08-03T08:09:26;97532.28;;;24.96;100.00
5284;BME280;15377;48.540;9.268;2022-08-03T08:11:52;97517.13;;;24.84;100.00
5284;BME280;15377;48.540;9.268;2022-08-03T08:14:17;97528.38;;;24.84;100.00
5284;BME280;15377;48.540;9.268;2022-08-03T08:16:42;97534.19;;;24.94;100.00
5284;BME280;15377;48.540;9.268;2022-08-03T08:19:08;97539.25;;;25.03;100.00
5284;BME280;15377;48.540;9.268;2022-08-03T08:21:33;97534.75;;;25.07;100.00
5284;BME280;15377;48.540;9.268;2022-08-03T08:23:58;97524.97;;;25.08;100.00
5284;BME280;15377;48.540;9.268;2022-08-03T08:26:24;97532.44;;;25.21;100.00
5284;BME280;15377;48.540;9.268;2022-08-03T08:28:50;97528.50;;;25.31;100.00
5284;BME280;15377;48.540;9.268;2022-08-03T08:31:16;97504.84;;;25.27;100.00
5284;BME280;15377;48.540;9.268;2022-08-03T08:33:42;97527.91;;;25.40;100.00
5284;BME280;15377;48.540;9.268;2022-08-03T08:36:07;97524.88;;;25.53;100.00
5284;BME280;15377;48.540;9.268;2022-08-03T08:38:34;97520.72;;;25.54;100.00
5284;BME280;15377;48.540;9.268;2022-08-03T08:40:59;97516.59;;;25.48;100.00
5284;BME280;15377;48.540;9.268;2022-08-03T08:43:25;97528.19;;;25.59;100.00
5284;BME280;15377;48.540;9.268;2022-08-03T08:45:53;97521.00;;;25.73;100.00
5284;BME280;15377;48.540;9.268;2022-08-03T08:48:22;97521.00;;;25.73;100.00
5284;BME280;15377;48.540;9.268;2022-08-03T08:50:52;97525.63;;;25.86;100.00
5284;BME280;15377;48.540;9.268;2022-08-03T08:53:18;97519.94;;;26.01;100.00
5284;BME280;15377;48.540;9.268;2022-08-03T08:55:46;97517.78;;;26.16;100.00
5284;BME280;15377;48.540;9.268;2022-08-03T08:58:15;97522.19;;;26.27;100.00
5284;BME280;15377;48.540;9.268;2022-08-03T09:00:43;97520.84;;;26.35;100.00
5284;BME280;15377;48.540;9.268;2022-08-03T09:03:09;97521.38;;;26.41;100.00
5284;BME280;15377;48.540;9.268;2022-08-03T09:05:36;97519.38;;;26.51;100.00
5284;BME280;15377;48.540;9.268;2022-08-03T09:08:04;97516.31;;;26.64;100.00
5284;BME280;15377;48.540;9.268;2022-08-03T09:10:30;97516.81;;;26.70;100.00
5284;BME280;15377;48.540;9.268;2022-08-03T09:12:55;97517.84;;;26.82;100.00
5284;BME280;15377;48.540;9.268;2022-08-03T09:15:23;97513.03;;;26.92;100.00
5284;BME280;15377;48.540;9.268;2022-08-03T09:17:51;97513.28;;;27.04;100.00
5284;BME280;15377;48.540;9.268;2022-08-03T09:20:19;97510.56;;;27.13;100.00
5284;BME280;15377;48.540;9.268;2022-08-03T09:23:02;97499.59;;;27.17;100.00
5284;BME280;15377;48.540;9.268;2022-08-03T09:25:31;97517.88;;;27.33;100.00
5284;BME280;15377;48.540;9.268;2022-08-03T09:30:33;97502.81;;;27.64;100.00
5284;BME280;15377;48.540;9.268;2022-08-03T09:33:01;97512.22;;;27.67;100.00
5284;BME280;15377;48.540;9.268;2022-08-03T09:35:26;97505.91;;;27.76;100.00
5284;BME280;15377;48.540;9.268;2022-08-03T09:40:37;97499.00;;;27.96;100.00
5284;BME280;15377;48.540;9.268;2022-08-03T09:43:03;97512.31;;;28.03;100.00
5284;BME280;15377;48.540;9.268;2022-08-03T09:45:28;97510.44;;;28.15;100.00
5284;BME280;15377;48.540;9.268;2022-08-03T09:47:54;97514.38;;;28.29;100.00
5284;BME280;15377;48.540;9.268;2022-08-03T09:50:21;97500.72;;;28.35;100.00
5284;BME280;15377;48.540;9.268;2022-08-03T09:52:47;97509.44;;;28.56;100.00
5284;BME280;15377;48.540;9.268;2022-08-03T09:55:15;97497.69;;;28.59;100.00
5284;BME280;15377;48.540;9.268;2022-08-03T09:57:43;97507.00;;;28.88;100.00
5284;BME280;15377;48.540;9.268;2022-08-03T10:00:15;97506.19;;;29.24;100.00
5284;BME280;15377;48.540;9.268;2022-08-03T10:02:43;97512.31;;;29.49;100.00
5284;BME280;15377;48.540;9.268;2022-08-03T10:05:11;97490.59;;;30.10;100.00
5284;BME280;15377;48.540;9.268;2022-08-03T10:07:44;97504.72;;;31.21;94.60
5284;BME280;15377;48.540;9.268;2022-08-03T10:10:10;97495.31;;;32.04;89.13
5284;BME280;15377;48.540;9.268;2022-08-03T10:12:36;97501.19;;;32.52;82.59
5284;BME280;15377;48.540;9.268;2022-08-03T10:15:02;97498.47;;;32.65;78.65
5284;BME280;15377;48.540;9.268;2022-08-03T10:17:27;97495.31;;;33.19;79.43
5284;BME280;15377;48.540;9.268;2022-08-03T10:19:53;97484.88;;;33.71;76.15
5284;BME280;15377;48.540;9.268;2022-08-03T10:22:22;97492.44;;;34.55;70.83
5284;BME280;15377;48.540;9.268;2022-08-03T10:25:08;97493.94;;;34.70;67.15
5284;BME280;15377;48.540;9.268;2022-08-03T10:27:38;97481.56;;;34.79;63.00
5284;BME280;15377;48.540;9.268;2022-08-03T10:30:06;97473.31;;;35.54;65.91
5284;BME280;15377;48.540;9.268;2022-08-03T10:32:51;97476.25;;;35.56;58.84
5284;BME280;15377;48.540;9.268;2022-08-03T10:35:20;97484.88;;;35.85;57.17
5284;BME280;15377;48.540;9.268;2022-08-03T10:38:00;97472.22;;;36.81;55.75
5284;BME280;15377;48.540;9.268;2022-08-03T10:40:29;97473.59;;;37.46;53.88
5284;BME280;15377;48.540;9.268;2022-08-03T10:42:58;97470.44;;;38.08;51.81
5284;BME280;15377;48.540;9.268;2022-08-03T10:45:26;97468.63;;;37.64;46.40
5284;BME280;15377;48.540;9.268;2022-08-03T10:47:54;97461.03;;;37.70;44.08
5284;BME280;15377;48.540;9.268;2022-08-03T10:50:23;97465.53;;;38.10;47.39
5284;BME280;15377;48.540;9.268;2022-08-03T10:52:55;97465.41;;;38.26;43.64
5284;BME280;15377;48.540;9.268;2022-08-03T11:01:12;97451.81;;;38.46;41.17
5284;BME280;15377;48.540;9.268;2022-08-03T11:06:24;97461.34;;;37.78;40.16
5284;BME280;15377;48.540;9.268;2022-08-03T11:11:34;97466.25;;;37.76;39.71
5284;BME280;15377;48.540;9.268;2022-08-03T11:14:20;97459.28;;;37.81;41.67
5284;BME280;15377;48.540;9.268;2022-08-03T11:16:50;97456.81;;;37.91;43.45
5284;BME280;15377;48.540;9.268;2022-08-03T11:19:45;97445.91;;;38.42;41.68
5284;BME280;15377;48.540;9.268;2022-08-03T11:22:11;97447.66;;;38.51;42.35
5284;BME280;15377;48.540;9.268;2022-08-03T11:27:18;97439.09;;;39.31;39.54
5284;BME280;15377;48.540;9.268;2022-08-03T11:30:00;97439.63;;;39.47;37.12
5284;BME280;15377;48.540;9.268;2022-08-03T11:35:13;97429.47;;;40.34;38.98
5284;BME280;15377;48.540;9.268;2022-08-03T11:46:07;97430.28;;;41.13;35.44
5284;BME280;15377;48.540;9.268;2022-08-03T11:48:33;97421.25;;;41.54;34.45
5284;BME280;15377;48.540;9.268;2022-08-03T11:51:04;97426.72;;;41.42;34.14
5284;BME280;15377;48.540;9.268;2022-08-03T11:53:30;97422.88;;;41.61;31.91
5284;BME280;15377;48.540;9.268;2022-08-03T11:56:00;97411.50;;;41.39;30.67
5284;BME280;15377;48.540;9.268;2022-08-03T11:58:26;97420.00;;;41.06;32.00
5284;BME280;15377;48.540;9.268;2022-08-03T12:01:02;97418.91;;;40.19;34.37
5284;BME280;15377;48.540;9.268;2022-08-03T12:03:31;97400.53;;;40.81;35.61
5284;BME280;15377;48.540;9.268;2022-08-03T12:05:57;97405.88;;;40.41;35.00
5284;BME280;15377;48.540;9.268;2022-08-03T12:10:51;97407.06;;;41.09;32.16
5284;BME280;15377;48.540;9.268;2022-08-03T12:13:18;97410.25;;;40.68;32.31
5284;BME280;15377;48.540;9.268;2022-08-03T12:15:50;97396.84;;;41.31;32.40
5284;BME280;15377;48.540;9.268;2022-08-03T12:18:17;97405.16;;;42.06;32.38
5284;BME280;15377;48.540;9.268;2022-08-03T12:20:44;97387.06;;;41.17;30.54
5284;BME280;15377;48.540;9.268;2022-08-03T12:23:10;97405.06;;;42.02;32.58
5284;BME280;15377;48.540;9.268;2022-08-03T12:25:37;97400.88;;;42.08;30.26
5284;BME280;15377;48.540;9.268;2022-08-03T12:28:12;97401.53;;;42.05;31.23
5284;BME280;15377;48.540;9.268;2022-08-03T12:30:40;97393.09;;;41.27;32.03
5284;BME280;15377;48.540;9.268;2022-08-03T12:33:18;97396.06;;;40.27;30.64
5284;BME280;15377;48.540;9.268;2022-08-03T12:35:49;97398.94;;;39.80;31.36
5284;BME280;15377;48.540;9.268;2022-08-03T12:38:19;97396.84;;;40.53;31.34
5284;BME280;15377;48.540;9.268;2022-08-03T12:40:57;97389.22;;;41.16;29.67
5284;BME280;15377;48.540;9.268;2022-08-03T12:43:24;97386.22;;;40.87;30.59
5284;BME280;15377;48.540;9.268;2022-08-03T12:45:49;97390.94;;;41.00;32.05
5284;BME280;15377;48.540;9.268;2022-08-03T12:48:15;97386.38;;;41.18;30.66
5284;BME280;15377;48.540;9.268;2022-08-03T12:50:40;97387.09;;;41.19;32.13
5284;BME280;15377;48.540;9.268;2022-08-03T12:53:09;97383.19;;;41.34;31.74
5284;BME280;15377;48.540;9.268;2022-08-03T12:55:38;97384.47;;;41.29;30.18
5284;BME280;15377;48.540;9.268;2022-08-03T12:58:06;97383.59;;;40.95;30.53
5284;BME280;15377;48.540;9.268;2022-08-03T13:00:33;97376.47;;;40.98;30.28
5284;BME280;15377;48.540;9.268;2022-08-03T13:03:00;97381.03;;;41.07;29.77
5284;BME280;15377;48.540;9.268;2022-08-03T13:05:26;97375.53;;;40.64;30.42
5284;BME280;15377;48.540;9.268;2022-08-03T13:07:52;97375.03;;;40.48;31.44
5284;BME280;15377;48.540;9.268;2022-08-03T13:10:31;97375.38;;;40.58;29.92
5284;BME280;15377;48.540;9.268;2022-08-03T13:12:57;97375.69;;;40.95;30.45
5284;BME280;15377;48.540;9.268;2022-08-03T13:15:27;97366.84;;;41.17;30.76
5284;BME280;15377;48.540;9.268;2022-08-03T13:17:56;97379.31;;;41.53;31.30
5284;BME280;15377;48.540;9.268;2022-08-03T13:20:22;97373.09;;;41.96;29.28
5284;BME280;15377;48.540;9.268;2022-08-03T13:22:48;97365.09;;;42.25;29.79
5284;BME280;15377;48.540;9.268;2022-08-03T13:25:13;97377.31;;;40.77;30.67
5284;BME280;15377;48.540;9.268;2022-08-03T13:27:39;97370.16;;;40.29;30.02
5284;BME280;15377;48.540;9.268;2022-08-03T13:30:06;97372.53;;;40.87;29.88
5284;BME280;15377;48.540;9.268;2022-08-03T13:32:31;97375.75;;;39.76;31.54
5284;BME280;15377;48.540;9.268;2022-08-03T13:34:57;97376.44;;;39.53;31.82
5284;BME280;15377;48.540;9.268;2022-08-03T13:37:23;97369.22;;;38.68;32.03
5284;BME280;15377;48.540;9.268;2022-08-03T13:39:48;97371.69;;;38.19;31.76
5284;BME280;15377;48.540;9.268;2022-08-03T13:42:14;97369.50;;;37.63;33.51
5284;BME280;15377;48.540;9.268;2022-08-03T13:44:39;97358.50;;;37.40;34.02
5284;BME280;15377;48.540;9.268;2022-08-03T13:47:04;97371.63;;;37.10;35.40
5284;BME280;15377;48.540;9.268;2022-08-03T13:49:30;97361.94;;;36.53;35.13
5284;BME280;15377;48.540;9.268;2022-08-03T13:51:55;97362.19;;;36.26;36.45